createdAt,value
2022-12-01T00:01:47.977Z,100.00
2022-12-01T00:08:08.417Z,100.00
2022-12-01T00:10:36.739Z,100.00
2022-12-01T00:13:08.685Z,100.00
2022-12-01T00:15:40.358Z,100.00
2022-12-01T00:18:07.300Z,100.00
2022-12-01T00:20:34.957Z,100.00
2022-12-01T00:23:07.546Z,100.00
2022-12-01T00:25:37.478Z,100.00
2022-12-01T00:28:05.230Z,100.00
2022-12-01T00:30:32.648Z,100.00
2022-12-01T00:33:02.595Z,100.00
2022-12-01T00:35:32.775Z,100.00
2022-12-01T00:37:59.469Z,100.00
2022-12-01T00:40:29.738Z,100.00
2022-12-01T00:42:57.510Z,100.00
2022-12-01T00:45:24.774Z,100.00
2022-12-01T00:47:51.381Z,100.00
2022-12-01T00:50:18.331Z,100.00
2022-12-01T00:52:45.124Z,100.00
2022-12-01T00:55:12.416Z,100.00
2022-12-01T00:57:39.706Z,100.00
2022-12-01T01:00:09.945Z,100.00
2022-12-01T01:02:39.211Z,100.00
2022-12-01T01:05:06.964Z,100.00
2022-12-01T01:07:33.517Z,100.00
2022-12-01T01:10:00.017Z,100.00
2022-12-01T01:12:28.112Z,100.00
2022-12-01T01:14:54.591Z,100.00
2022-12-01T01:17:21.058Z,100.00
2022-12-01T01:19:47.925Z,100.00
2022-12-01T01:22:14.710Z,100.00
2022-12-01T01:24:41.212Z,100.00
2022-12-01T01:27:07.767Z,100.00
2022-12-01T01:29:34.499Z,100.00
2022-12-01T01:32:01.040Z,100.00
2022-12-01T01:34:27.659Z,100.00
2022-12-01T01:36:54.113Z,100.00
2022-12-01T01:39:20.636Z,100.00
2022-12-01T01:41:47.382Z,100.00
2022-12-01T01:44:45.095Z,100.00
2022-12-01T01:47:13.317Z,100.00
2022-12-01T01:49:41.239Z,100.00
2022-12-01T01:52:08.304Z,100.00
2022-12-01T01:54:43.317Z,100.00
2022-12-01T01:57:13.705Z,100.00
2022-12-01T01:59:49.035Z,100.00
2022-12-01T02:02:16.072Z,100.00
2022-12-01T02:04:47.393Z,100.00
2022-12-01T02:07:18.112Z,100.00
2022-12-01T02:09:45.366Z,100.00
2022-12-01T02:12:34.300Z,100.00
2022-12-01T02:15:04.981Z,100.00
2022-12-01T02:17:56.953Z,100.00
2022-12-01T02:20:49.790Z,100.00
2022-12-01T02:23:34.721Z,100.00
2022-12-01T02:26:29.156Z,100.00
2022-12-01T02:29:20.601Z,100.00
2022-12-01T02:32:09.051Z,100.00
2022-12-01T02:34:50.188Z,100.00
2022-12-01T02:37:40.784Z,100.00
2022-12-01T02:40:22.407Z,100.00
2022-12-01T02:43:02.221Z,100.00
2022-12-01T02:45:56.421Z,100.00
2022-12-01T02:48:28.307Z,100.00
2022-12-01T02:50:58.620Z,100.00
2022-12-01T02:53:27.055Z,100.00
2022-12-01T02:55:54.788Z,100.00
2022-12-01T02:58:22.252Z,100.00
2022-12-01T03:00:59.375Z,100.00
2022-12-01T03:04:05.178Z,100.00
2022-12-01T03:06:46.979Z,100.00
2022-12-01T03:09:41.409Z,100.00
2022-12-01T03:12:57.435Z,100.00
2022-12-01T03:15:45.594Z,100.00
2022-12-01T03:18:29.071Z,100.00
2022-12-01T03:21:15.039Z,100.00
2022-12-01T03:23:47.090Z,100.00
2022-12-01T03:26:17.688Z,100.00
2022-12-01T03:28:49.839Z,100.00
2022-12-01T03:31:20.274Z,100.00
2022-12-01T03:33:52.259Z,100.00
2022-12-01T03:36:36.977Z,100.00
2022-12-01T03:39:08.690Z,100.00
2022-12-01T03:41:44.199Z,100.00
2022-12-01T03:44:21.292Z,100.00
2022-12-01T03:46:53.951Z,100.00
2022-12-01T03:49:23.694Z,100.00
2022-12-01T03:51:59.111Z,100.00
2022-12-01T03:54:52.141Z,100.00
2022-12-01T03:57:25.903Z,100.00
2022-12-01T03:59:53.814Z,100.00
2022-12-01T04:02:20.903Z,100.00
2022-12-01T04:04:47.492Z,100.00
2022-12-01T04:07:14.819Z,100.00
2022-12-01T04:09:41.941Z,100.00
2022-12-01T04:12:32.846Z,100.00
2022-12-01T04:15:02.521Z,100.00
2022-12-01T04:17:29.614Z,100.00
2022-12-01T04:19:56.470Z,100.00
2022-12-01T04:22:23.680Z,100.00
2022-12-01T04:24:50.201Z,100.00
2022-12-01T04:27:16.877Z,100.00
2022-12-01T04:29:43.449Z,100.00
2022-12-01T04:32:10.175Z,100.00
2022-12-01T04:34:36.883Z,100.00
2022-12-01T04:37:03.994Z,100.00
2022-12-01T04:39:30.452Z,100.00
2022-12-01T04:41:56.987Z,100.00
2022-12-01T04:44:23.595Z,100.00
2022-12-01T04:46:52.809Z,100.00
2022-12-01T04:49:21.473Z,100.00
2022-12-01T04:51:48.849Z,100.00
2022-12-01T04:54:16.424Z,100.00
2022-12-01T04:56:45.908Z,100.00
2022-12-01T04:59:12.790Z,100.00
2022-12-01T05:01:39.506Z,100.00
2022-12-01T05:04:06.161Z,100.00
2022-12-01T05:06:32.765Z,100.00
2022-12-01T05:09:01.668Z,100.00
2022-12-01T05:11:29.804Z,100.00
2022-12-01T05:13:56.314Z,100.00
2022-12-01T05:16:25.406Z,100.00
2022-12-01T05:19:18.802Z,100.00
2022-12-01T05:21:47.342Z,100.00
2022-12-01T05:24:14.359Z,100.00
2022-12-01T05:26:41.948Z,100.00
2022-12-01T05:29:09.610Z,100.00
2022-12-01T05:31:36.251Z,100.00
2022-12-01T05:34:03.411Z,100.00
2022-12-01T05:36:30.051Z,100.00
2022-12-01T05:38:56.534Z,100.00
2022-12-01T05:41:23.075Z,100.00
2022-12-01T05:43:49.581Z,100.00
2022-12-01T05:46:16.161Z,100.00
2022-12-01T05:48:42.809Z,100.00
2022-12-01T05:51:10.853Z,100.00
2022-12-01T05:53:37.449Z,100.00
2022-12-01T05:56:04.430Z,100.00
2022-12-01T05:58:30.979Z,100.00
2022-12-01T06:00:57.534Z,100.00
2022-12-01T06:03:24.036Z,100.00
2022-12-01T06:05:50.973Z,100.00
2022-12-01T06:08:17.646Z,100.00
2022-12-01T06:10:44.663Z,100.00
2022-12-01T06:13:11.131Z,100.00
2022-12-01T06:15:37.751Z,100.00
2022-12-01T06:18:04.436Z,100.00
2022-12-01T06:20:31.055Z,100.00
2022-12-01T06:22:59.531Z,100.00
2022-12-01T06:25:26.128Z,100.00
2022-12-01T06:27:57.440Z,100.00
2022-12-01T06:30:24.044Z,100.00
2022-12-01T06:32:50.537Z,100.00
2022-12-01T06:35:17.015Z,100.00
2022-12-01T06:37:43.485Z,100.00
2022-12-01T06:40:10.771Z,100.00
2022-12-01T06:42:37.313Z,100.00
2022-12-01T06:45:03.981Z,100.00
2022-12-01T06:47:30.429Z,100.00
2022-12-01T06:49:56.975Z,100.00
2022-12-01T06:52:23.532Z,100.00
2022-12-01T06:54:50.077Z,100.00
2022-12-01T06:57:16.899Z,100.00
2022-12-01T06:59:43.496Z,100.00
2022-12-01T07:02:11.511Z,100.00
2022-12-01T07:04:38.075Z,100.00
2022-12-01T07:07:06.080Z,100.00
2022-12-01T07:09:32.979Z,100.00
2022-12-01T07:11:59.923Z,100.00
2022-12-01T07:14:27.284Z,100.00
2022-12-01T07:16:55.061Z,100.00
2022-12-01T07:19:21.817Z,100.00
2022-12-01T07:21:48.470Z,100.00
2022-12-01T07:24:15.117Z,100.00
2022-12-01T07:26:42.616Z,100.00
2022-12-01T07:29:10.559Z,100.00
2022-12-01T07:31:38.205Z,100.00
2022-12-01T07:34:05.346Z,100.00
2022-12-01T07:36:31.999Z,100.00
2022-12-01T07:38:58.698Z,100.00
2022-12-01T07:41:25.549Z,100.00
2022-12-01T07:43:52.090Z,100.00
2022-12-01T07:46:23.530Z,100.00
2022-12-01T07:48:51.672Z,100.00
2022-12-01T07:51:18.592Z,100.00
2022-12-01T07:53:46.592Z,100.00
2022-12-01T07:56:13.634Z,100.00
2022-12-01T07:58:40.962Z,100.00
2022-12-01T08:01:09.544Z,100.00
2022-12-01T08:03:36.529Z,100.00
2022-12-01T08:06:05.048Z,100.00
2022-12-01T08:08:32.439Z,100.00
2022-12-01T08:11:05.509Z,100.00
2022-12-01T08:13:32.509Z,100.00
2022-12-01T08:15:59.151Z,100.00
2022-12-01T08:18:25.706Z,100.00
2022-12-01T08:20:56.011Z,100.00
2022-12-01T08:23:25.738Z,100.00
2022-12-01T08:25:55.541Z,100.00
2022-12-01T08:28:22.136Z,100.00
2022-12-01T08:30:48.712Z,100.00
2022-12-01T08:33:15.281Z,100.00
2022-12-01T08:35:41.883Z,100.00
2022-12-01T08:38:09.558Z,100.00
2022-12-01T08:40:36.101Z,100.00
2022-12-01T08:43:02.690Z,100.00
2022-12-01T08:45:29.233Z,100.00
2022-12-01T08:47:59.938Z,100.00
2022-12-01T08:50:27.718Z,100.00
2022-12-01T08:52:54.860Z,100.00
2022-12-01T08:55:22.671Z,100.00
2022-12-01T08:57:49.224Z,100.00
2022-12-01T09:00:16.756Z,100.00
2022-12-01T09:02:43.325Z,100.00
2022-12-01T09:05:09.940Z,100.00
2022-12-01T09:07:36.658Z,100.00
2022-12-01T09:10:03.776Z,100.00
2022-12-01T09:15:30.590Z,100.00
2022-12-01T09:17:57.123Z,100.00
2022-12-01T09:20:25.914Z,100.00
2022-12-01T09:22:52.368Z,100.00
2022-12-01T09:25:18.834Z,100.00
2022-12-01T09:27:45.430Z,100.00
2022-12-01T09:30:12.671Z,100.00
2022-12-01T09:32:39.296Z,100.00
2022-12-01T09:35:05.943Z,100.00
2022-12-01T09:37:32.568Z,100.00
2022-12-01T09:39:59.073Z,100.00
2022-12-01T09:42:30.849Z,100.00
2022-12-01T09:45:02.773Z,100.00
2022-12-01T09:47:33.896Z,100.00
2022-12-01T09:50:18.812Z,100.00
2022-12-01T09:52:57.561Z,100.00
2022-12-01T09:55:25.987Z,100.00
2022-12-01T09:57:58.357Z,100.00
2022-12-01T10:00:32.734Z,100.00
2022-12-01T10:03:06.718Z,100.00
2022-12-01T10:06:24.575Z,100.00
2022-12-01T10:08:37.282Z,100.00
2022-12-01T10:11:16.667Z,100.00
2022-12-01T10:13:43.927Z,100.00
2022-12-01T10:16:18.884Z,100.00
2022-12-01T10:19:13.310Z,100.00
2022-12-01T10:22:15.186Z,100.00
2022-12-01T10:25:01.302Z,100.00
2022-12-01T10:28:10.441Z,100.00
2022-12-01T10:30:48.448Z,100.00
2022-12-01T10:33:34.201Z,100.00
2022-12-01T10:36:01.354Z,100.00
2022-12-01T10:38:35.404Z,100.00
2022-12-01T10:41:06.027Z,100.00
2022-12-01T10:43:42.060Z,100.00
2022-12-01T10:46:32.968Z,100.00
2022-12-01T10:49:07.534Z,100.00
2022-12-01T10:51:47.338Z,100.00
2022-12-01T10:54:14.147Z,100.00
2022-12-01T10:56:43.010Z,100.00
2022-12-01T10:59:46.631Z,100.00
2022-12-01T11:02:21.190Z,100.00
2022-12-01T11:04:58.186Z,100.00
2022-12-01T11:07:28.117Z,99.81
2022-12-01T11:10:02.664Z,99.69
2022-12-01T11:12:29.505Z,100.00
2022-12-01T11:14:57.414Z,99.43
2022-12-01T11:17:29.424Z,99.99
2022-12-01T11:19:56.307Z,100.00
2022-12-01T11:22:31.533Z,100.00
2022-12-01T11:25:05.792Z,98.97
2022-12-01T11:27:51.087Z,99.70
2022-12-01T11:30:24.592Z,100.00
2022-12-01T11:32:58.221Z,100.00
2022-12-01T11:35:28.024Z,100.00
2022-12-01T11:38:28.363Z,100.00
2022-12-01T11:40:51.305Z,100.00
2022-12-01T11:43:33.260Z,100.00
2022-12-01T11:46:04.687Z,100.00
2022-12-01T11:48:34.639Z,100.00
2022-12-01T11:51:25.410Z,100.00
2022-12-01T11:54:16.284Z,100.00
2022-12-01T11:56:44.666Z,100.00
2022-12-01T11:59:13.100Z,100.00
2022-12-01T12:01:57.899Z,100.00
2022-12-01T12:04:31.723Z,100.00
2022-12-01T12:07:11.289Z,100.00
2022-12-01T12:10:15.118Z,100.00
2022-12-01T12:13:08.144Z,100.00
2022-12-01T12:16:05.727Z,100.00
2022-12-01T12:18:44.027Z,100.00
2022-12-01T12:21:46.077Z,100.00
2022-12-01T12:24:38.352Z,99.92
2022-12-01T12:27:15.187Z,100.00
2022-12-01T12:30:03.093Z,100.00
2022-12-01T12:32:38.748Z,100.00
2022-12-01T12:35:20.348Z,99.79
2022-12-01T12:38:32.421Z,99.31
2022-12-01T12:41:38.065Z,99.90
2022-12-01T12:44:47.986Z,100.00
2022-12-01T12:47:31.538Z,99.21
2022-12-01T12:50:34.547Z,98.72
2022-12-01T12:53:16.222Z,98.39
2022-12-01T12:55:50.255Z,98.30
2022-12-01T12:58:25.915Z,98.52
2022-12-01T13:01:01.468Z,98.60
2022-12-01T13:03:49.146Z,97.29
2022-12-01T13:06:27.957Z,97.20
2022-12-01T13:09:04.380Z,98.57
2022-12-01T13:11:38.448Z,98.11
2022-12-01T13:14:14.292Z,98.58
2022-12-01T13:16:44.113Z,97.54
2022-12-01T13:19:17.244Z,98.24
2022-12-01T13:21:46.550Z,98.26
2022-12-01T13:24:22.771Z,98.17
2022-12-01T13:27:01.282Z,98.48
2022-12-01T13:29:40.979Z,98.38
2022-12-01T13:32:30.536Z,98.23
2022-12-01T13:34:59.004Z,98.41
2022-12-01T13:37:26.922Z,97.61
2022-12-01T13:39:55.585Z,98.00
2022-12-01T13:42:25.927Z,96.88
2022-12-01T13:44:56.999Z,97.50
2022-12-01T13:47:57.604Z,98.91
2022-12-01T13:50:36.468Z,98.69
2022-12-01T13:53:25.373Z,97.10
2022-12-01T13:56:04.036Z,97.52
2022-12-01T13:58:33.720Z,97.61
2022-12-01T14:01:35.053Z,98.24
2022-12-01T14:04:10.463Z,97.35
2022-12-01T14:06:50.551Z,97.65
2022-12-01T14:09:27.972Z,96.76
2022-12-01T14:11:58.394Z,97.65
2022-12-01T14:14:32.687Z,96.21
2022-12-01T14:17:02.643Z,96.85
2022-12-01T14:19:32.784Z,96.76
2022-12-01T14:22:00.968Z,96.93
2022-12-01T14:24:40.514Z,96.65
2022-12-01T14:27:08.712Z,96.90
2022-12-01T14:29:43.022Z,95.49
2022-12-01T14:32:09.443Z,94.99
2022-12-01T14:34:37.638Z,94.71
2022-12-01T14:37:11.896Z,94.69
2022-12-01T14:39:42.332Z,95.39
2022-12-01T14:42:36.908Z,93.80
2022-12-01T14:45:05.497Z,93.70
2022-12-01T14:47:46.659Z,94.74
2022-12-01T14:50:33.128Z,95.32
2022-12-01T14:53:14.211Z,94.82
2022-12-01T14:55:47.698Z,95.26
2022-12-01T14:58:19.903Z,95.11
2022-12-01T15:01:13.811Z,94.48
2022-12-01T15:03:59.252Z,95.13
2022-12-01T15:06:28.519Z,95.03
2022-12-01T15:12:02.363Z,94.94
2022-12-01T15:14:32.054Z,94.15
2022-12-01T15:16:59.346Z,93.92
2022-12-01T15:19:33.916Z,94.18
2022-12-01T15:22:05.592Z,94.96
2022-12-01T15:24:33.963Z,95.38
2022-12-01T15:27:03.798Z,96.04
2022-12-01T15:29:52.226Z,95.58
2022-12-01T15:32:21.620Z,95.87
2022-12-01T15:34:51.933Z,95.37
2022-12-01T15:37:21.991Z,94.83
2022-12-01T15:39:48.715Z,96.33
2022-12-01T15:42:22.846Z,95.76
2022-12-01T15:45:05.222Z,95.71
2022-12-01T15:47:41.267Z,95.96
2022-12-01T15:50:31.553Z,95.11
2022-12-01T15:53:00.827Z,94.80
2022-12-01T15:55:31.030Z,94.45
2022-12-01T15:57:59.633Z,94.77
2022-12-01T16:00:26.413Z,95.04
2022-12-01T16:02:56.350Z,93.78
2022-12-01T16:05:26.887Z,93.21
2022-12-01T16:10:40.067Z,92.50
2022-12-01T16:13:37.836Z,93.19
2022-12-01T16:16:42.044Z,93.02
2022-12-01T16:19:08.617Z,93.78
2022-12-01T16:22:12.038Z,93.93
2022-12-01T16:24:46.653Z,95.01
2022-12-01T16:27:33.592Z,94.90
2022-12-01T16:30:06.987Z,95.46
2022-12-01T16:32:42.644Z,95.70
2022-12-01T16:35:21.299Z,96.96
2022-12-01T16:37:48.125Z,97.60
2022-12-01T16:40:16.822Z,97.52
2022-12-01T16:42:43.491Z,97.14
2022-12-01T16:45:14.876Z,97.93
2022-12-01T16:47:42.653Z,97.91
2022-12-01T16:50:17.401Z,98.19
2022-12-01T16:52:45.639Z,99.23
2022-12-01T16:55:18.698Z,98.92
2022-12-01T16:57:45.183Z,99.31
2022-12-01T17:00:12.237Z,100.00
2022-12-01T17:02:38.798Z,100.00
2022-12-01T17:05:05.536Z,100.00
2022-12-01T17:07:32.022Z,100.00
2022-12-01T17:09:58.686Z,99.78
2022-12-01T17:12:26.774Z,100.00
2022-12-01T17:14:53.313Z,100.00
2022-12-01T17:17:19.868Z,99.73
2022-12-01T17:19:46.381Z,100.00
2022-12-01T17:22:12.948Z,100.00
2022-12-01T17:24:39.572Z,99.72
2022-12-01T17:27:06.029Z,100.00
2022-12-01T17:29:32.524Z,99.99
2022-12-01T17:31:59.035Z,99.70
2022-12-01T17:34:25.495Z,100.00
2022-12-01T17:36:52.046Z,99.88
2022-12-01T17:39:19.384Z,99.91
2022-12-01T17:41:45.879Z,99.71
2022-12-01T17:44:12.496Z,100.00
2022-12-01T17:46:39.025Z,100.00
2022-12-01T17:49:09.337Z,100.00
2022-12-01T17:51:36.773Z,100.00
2022-12-01T17:54:05.543Z,100.00
2022-12-01T17:56:32.364Z,100.00
2022-12-01T17:58:58.841Z,100.00
2022-12-01T18:01:30.173Z,100.00
2022-12-01T18:03:58.875Z,100.00
2022-12-01T18:06:26.746Z,100.00
2022-12-01T18:08:53.984Z,100.00
2022-12-01T18:11:20.987Z,100.00
2022-12-01T18:13:50.975Z,100.00
2022-12-01T18:16:31.844Z,100.00
2022-12-01T18:19:00.026Z,100.00
2022-12-01T18:21:27.848Z,100.00
2022-12-01T18:23:57.144Z,100.00
2022-12-01T18:26:25.149Z,100.00
2022-12-01T18:28:56.653Z,100.00
2022-12-01T18:31:24.086Z,100.00
2022-12-01T18:33:51.637Z,100.00
2022-12-01T18:36:22.033Z,100.00
2022-12-01T18:38:50.081Z,100.00
2022-12-01T18:41:17.782Z,100.00
2022-12-01T18:43:44.889Z,100.00
2022-12-01T18:46:16.385Z,100.00
2022-12-01T18:48:48.167Z,100.00
2022-12-01T18:51:15.215Z,100.00
2022-12-01T18:53:42.168Z,100.00
2022-12-01T18:56:11.911Z,100.00
2022-12-01T18:58:40.136Z,100.00
2022-12-01T19:01:22.971Z,100.00
2022-12-01T19:03:49.981Z,100.00
2022-12-01T19:06:17.759Z,100.00
2022-12-01T19:08:44.247Z,100.00
2022-12-01T19:11:10.864Z,100.00
2022-12-01T19:13:37.430Z,100.00
2022-12-01T19:16:12.870Z,100.00
2022-12-01T19:18:39.902Z,100.00
2022-12-01T19:21:08.172Z,100.00
2022-12-01T19:23:34.742Z,100.00
2022-12-01T19:26:10.137Z,100.00
2022-12-01T19:28:37.744Z,100.00
2022-12-01T19:31:11.184Z,100.00
2022-12-01T19:33:38.177Z,100.00
2022-12-01T19:36:10.536Z,100.00
2022-12-01T19:38:37.403Z,100.00
2022-12-01T19:41:05.029Z,100.00
2022-12-01T19:43:34.031Z,100.00
2022-12-01T19:46:05.831Z,100.00
2022-12-01T19:48:32.435Z,100.00
2022-12-01T19:50:59.134Z,100.00
2022-12-01T19:53:29.170Z,100.00
2022-12-01T19:56:02.121Z,100.00
2022-12-01T19:58:31.201Z,100.00
2022-12-01T20:01:06.188Z,100.00
2022-12-01T20:03:33.284Z,100.00
2022-12-01T20:06:27.587Z,100.00
2022-12-01T20:09:00.040Z,100.00
2022-12-01T20:11:29.751Z,99.83
2022-12-01T20:13:56.767Z,99.29
2022-12-01T20:16:24.732Z,99.45
2022-12-01T20:18:52.587Z,99.35
2022-12-01T20:21:33.409Z,100.00
2022-12-01T20:24:01.552Z,100.00
2022-12-01T20:26:31.711Z,100.00
2022-12-01T20:29:08.933Z,100.00
2022-12-01T20:31:37.079Z,100.00
2022-12-01T20:34:07.411Z,100.00
2022-12-01T20:36:34.586Z,100.00
2022-12-01T20:39:01.158Z,100.00
2022-12-01T20:41:27.771Z,100.00
2022-12-01T20:43:54.322Z,100.00
2022-12-01T20:46:20.900Z,100.00
2022-12-01T20:48:47.479Z,100.00
2022-12-01T20:51:14.747Z,100.00
2022-12-01T20:53:54.503Z,100.00
2022-12-01T20:56:29.284Z,100.00
2022-12-01T20:58:55.806Z,100.00
2022-12-01T21:01:22.545Z,100.00
2022-12-01T21:03:50.888Z,100.00
2022-12-01T21:06:17.943Z,100.00
2022-12-01T21:08:46.589Z,100.00
2022-12-01T21:11:44.334Z,100.00
2022-12-01T21:14:18.045Z,100.00
2022-12-01T21:16:48.354Z,100.00
2022-12-01T21:19:23.903Z,100.00
2022-12-01T21:21:50.476Z,100.00
2022-12-01T21:24:20.028Z,100.00
2022-12-01T21:26:48.220Z,100.00
2022-12-01T21:29:22.194Z,100.00
2022-12-01T21:31:52.345Z,100.00
2022-12-01T21:34:28.839Z,100.00
2022-12-01T21:36:59.031Z,100.00
2022-12-01T21:39:26.453Z,100.00
2022-12-01T21:41:56.556Z,100.00
2022-12-01T21:44:29.441Z,100.00
2022-12-01T21:46:57.359Z,100.00
2022-12-01T21:49:39.038Z,100.00
2022-12-01T21:52:19.724Z,100.00
2022-12-01T21:54:46.815Z,100.00
2022-12-01T21:57:43.380Z,100.00
2022-12-01T22:00:36.872Z,100.00
2022-12-01T22:03:26.294Z,100.00
2022-12-01T22:06:29.311Z,100.00
2022-12-01T22:09:01.259Z,100.00
2022-12-01T22:11:29.702Z,100.00
2022-12-01T22:14:04.422Z,100.00
2022-12-01T22:16:32.246Z,100.00
2022-12-01T22:19:01.679Z,100.00
2022-12-01T22:21:33.545Z,100.00
2022-12-01T22:24:14.589Z,100.00
2022-12-01T22:26:46.412Z,100.00
2022-12-01T22:30:29.558Z,100.00
2022-12-01T22:32:58.452Z,100.00
2022-12-01T22:35:41.936Z,100.00
2022-12-01T22:38:11.076Z,100.00
2022-12-01T22:40:58.172Z,100.00
2022-12-01T22:43:27.555Z,100.00
2022-12-01T22:46:05.277Z,100.00
2022-12-01T22:48:39.186Z,100.00
2022-12-01T22:51:20.848Z,100.00
2022-12-01T22:53:48.315Z,100.00
2022-12-01T22:57:00.810Z,100.00
2022-12-01T22:59:46.248Z,100.00
2022-12-01T23:02:23.333Z,100.00
2022-12-01T23:04:55.770Z,100.00
2022-12-01T23:07:32.690Z,100.00
2022-12-01T23:10:29.918Z,100.00
2022-12-01T23:13:00.449Z,100.00
2022-12-01T23:15:34.154Z,100.00
2022-12-01T23:18:33.434Z,100.00
2022-12-01T23:21:01.746Z,100.00
2022-12-01T23:23:30.860Z,100.00
2022-12-01T23:25:58.311Z,100.00
2022-12-01T23:28:25.131Z,99.93
2022-12-01T23:30:54.975Z,99.21
2022-12-01T23:33:24.186Z,98.82
2022-12-01T23:36:05.165Z,98.98
2022-12-01T23:38:42.428Z,99.79
2022-12-01T23:41:25.447Z,99.96
2022-12-01T23:44:01.984Z,99.85
2022-12-01T23:46:28.505Z,99.31
2022-12-01T23:49:04.369Z,99.35
2022-12-01T23:51:37.103Z,99.69
2022-12-01T23:54:14.141Z,100.00
2022-12-01T23:56:40.625Z,99.46
2022-12-01T23:59:13.362Z,99.00
